sensor_id;sensor_type;location;lat;lon;timestamp;pressure;altitude;pressure_sealevel;temperature;humidity
20145;BME280;10233;50.814;6.590;2023-04-28T00:00:42;99923.69;;;11.58;100.00
20145;BME280;10233;50.814;6.590;2023-04-28T00:01:42;99926.44;;;11.45;100.00
20145;BME280;10233;50.814;6.590;2023-04-28T00:02:47;99921.41;;;11.37;100.00
20145;BME280;10233;50.814;6.590;2023-04-28T00:03:48;99923.13;;;11.19;100.00
20145;BME280;10233;50.814;6.590;2023-04-28T00:04:48;99922.84;;;11.33;100.00
20145;BME280;10233;50.814;6.590;2023-04-28T00:05:51;99920.78;;;11.35;100.00
20145;BME280;10233;50.814;6.590;2023-04-28T00:06:52;99914.00;;;11.39;100.00
20145;BME280;10233;50.814;6.590;2023-04-28T00:07:52;99910.59;;;11.32;100.00
20145;BME280;10233;50.814;6.590;2023-04-28T00:08:53;99918.44;;;11.21;100.00
20145;BME280;10233;50.814;6.590;2023-04-28T00:09:53;99919.56;;;11.31;100.00
20145;BME280;10233;50.814;6.590;2023-04-28T00:10:56;99913.41;;;11.37;100.00
20145;BME280;10233;50.814;6.590;2023-04-28T00:11:56;99905.84;;;11.34;100.00
20145;BME280;10233;50.814;6.590;2023-04-28T00:12:57;99910.63;;;11.26;100.00
20145;BME280;10233;50.814;6.590;2023-04-28T00:13:58;99906.53;;;11.23;100.00
20145;BME280;10233;50.814;6.590;2023-04-28T00:14:58;99908.16;;;11.24;100.00
20145;BME280;10233;50.814;6.590;2023-04-28T00:15:59;99901.81;;;11.25;100.00
20145;BME280;10233;50.814;6.590;2023-04-28T00:17:00;99902.47;;;11.21;100.00
20145;BME280;10233;50.814;6.590;2023-04-28T00:18:02;99895.56;;;11.13;100.00
20145;BME280;10233;50.814;6.590;2023-04-28T00:19:03;99894.53;;;11.14;100.00
20145;BME280;10233;50.814;6.590;2023-04-28T00:20:04;99889.88;;;11.03;100.00
20145;BME280;10233;50.814;6.590;2023-04-28T00:21:05;99889.84;;;11.10;100.00
20145;BME280;10233;50.814;6.590;2023-04-28T00:22:06;99893.94;;;11.12;100.00
20145;BME280;10233;50.814;6.590;2023-04-28T00:23:06;99881.44;;;11.13;100.00
20145;BME280;10233;50.814;6.590;2023-04-28T00:24:07;99880.19;;;11.15;100.00
20145;BME280;10233;50.814;6.590;2023-04-28T00:25:08;99884.63;;;11.21;100.00
20145;BME280;10233;50.814;6.590;2023-04-28T00:26:08;99879.47;;;11.26;100.00
20145;BME280;10233;50.814;6.590;2023-04-28T00:27:10;99875.91;;;11.14;100.00
20145;BME280;10233;50.814;6.590;2023-04-28T00:28:11;99870.16;;;11.17;100.00
20145;BME280;10233;50.814;6.590;2023-04-28T00:29:11;99872.53;;;11.25;100.00
20145;BME280;10233;50.814;6.590;2023-04-28T00:30:12;99859.84;;;11.27;100.00
20145;BME280;10233;50.814;6.590;2023-04-28T00:31:13;99864.34;;;11.27;100.00
20145;BME280;10233;50.814;6.590;2023-04-28T00:32:15;99862.09;;;11.24;100.00
20145;BME280;10233;50.814;6.590;2023-04-28T00:33:15;99862.50;;;11.27;100.00
20145;BME280;10233;50.814;6.590;2023-04-28T00:34:16;99863.25;;;11.34;100.00
20145;BME280;10233;50.814;6.590;2023-04-28T00:35:17;99859.84;;;11.27;100.00
20145;BME280;10233;50.814;6.590;2023-04-28T00:36:18;99852.66;;;11.28;100.00
20145;BME280;10233;50.814;6.590;2023-04-28T00:37:19;99860.34;;;11.11;100.00
20145;BME280;10233;50.814;6.590;2023-04-28T00:38:19;99858.34;;;11.07;100.00
20145;BME280;10233;50.814;6.590;2023-04-28T00:39:20;99849.72;;;11.11;100.00
20145;BME280;10233;50.814;6.590;2023-04-28T00:40:22;99854.19;;;11.17;100.00
20145;BME280;10233;50.814;6.590;2023-04-28T00:41:24;99855.28;;;11.34;100.00
20145;BME280;10233;50.814;6.590;2023-04-28T00:42:25;99857.28;;;11.39;100.00
20145;BME280;10233;50.814;6.590;2023-04-28T00:43:25;99855.44;;;11.39;100.00
20145;BME280;10233;50.814;6.590;2023-04-28T00:44:26;99865.00;;;11.47;100.00
20145;BME280;10233;50.814;6.590;2023-04-28T00:45:27;99856.38;;;11.51;100.00
20145;BME280;10233;50.814;6.590;2023-04-28T00:46:32;99859.47;;;11.48;100.00
20145;BME280;10233;50.814;6.590;2023-04-28T00:47:33;99857.94;;;11.34;100.00
20145;BME280;10233;50.814;6.590;2023-04-28T00:48:34;99858.16;;;11.33;100.00
20145;BME280;10233;50.814;6.590;2023-04-28T00:49:35;99861.19;;;11.36;100.00
20145;BME280;10233;50.814;6.590;2023-04-28T00:50:36;99861.31;;;11.48;100.00
20145;BME280;10233;50.814;6.590;2023-04-28T00:51:36;99859.22;;;11.56;100.00
20145;BME280;10233;50.814;6.590;2023-04-28T00:52:38;99863.22;;;11.65;100.00
20145;BME280;10233;50.814;6.590;2023-04-28T00:53:39;99864.97;;;11.78;100.00
20145;BME280;10233;50.814;6.590;2023-04-28T00:54:41;99864.69;;;11.86;100.00
20145;BME280;10233;50.814;6.590;2023-04-28T00:55:45;99856.66;;;11.92;100.00
20145;BME280;10233;50.814;6.590;2023-04-28T00:56:47;99862.75;;;11.75;100.00
20145;BME280;10233;50.814;6.590;2023-04-28T00:57:50;99853.03;;;11.62;100.00
20145;BME280;10233;50.814;6.590;2023-04-28T00:58:51;99853.03;;;11.62;100.00
20145;BME280;10233;50.814;6.590;2023-04-28T00:59:52;99853.19;;;11.67;100.00
20145;BME280;10233;50.814;6.590;2023-04-28T01:01:01;99849.81;;;11.54;100.00
20145;BME280;10233;50.814;6.590;2023-04-28T01:02:02;99848.41;;;11.51;100.00
20145;BME280;10233;50.814;6.590;2023-04-28T01:03:03;99841.06;;;11.47;100.00
20145;BME280;10233;50.814;6.590;2023-04-28T01:04:07;99848.66;;;11.43;100.00
20145;BME280;10233;50.814;6.590;2023-04-28T01:05:10;99848.44;;;11.45;100.00
20145;BME280;10233;50.814;6.590;2023-04-28T01:06:12;99852.19;;;11.37;100.00
20145;BME280;10233;50.814;6.590;2023-04-28T01:07:14;99845.50;;;11.28;100.00
20145;BME280;10233;50.814;6.590;2023-04-28T01:08:15;99845.94;;;11.25;100.00
20145;BME280;10233;50.814;6.590;2023-04-28T01:09:16;99849.25;;;11.45;100.00
20145;BME280;10233;50.814;6.590;2023-04-28T01:10:17;99850.19;;;11.57;100.00
20145;BME280;10233;50.814;6.590;2023-04-28T01:11:17;99848.91;;;11.66;100.00
20145;BME280;10233;50.814;6.590;2023-04-28T01:12:38;99852.63;;;11.59;100.00
20145;BME280;10233;50.814;6.590;2023-04-28T01:13:40;99853.78;;;11.69;100.00
20145;BME280;10233;50.814;6.590;2023-04-28T01:14:40;99852.53;;;11.72;100.00
20145;BME280;10233;50.814;6.590;2023-04-28T01:15:41;99849.81;;;11.78;100.00
20145;BME280;10233;50.814;6.590;2023-04-28T01:16:42;99851.91;;;11.76;100.00
20145;BME280;10233;50.814;6.590;2023-04-28T01:17:44;99851.75;;;11.71;100.00
20145;BME280;10233;50.814;6.590;2023-04-28T01:18:46;99841.00;;;11.78;100.00
20145;BME280;10233;50.814;6.590;2023-04-28T01:19:48;99847.16;;;11.78;100.00
20145;BME280;10233;50.814;6.590;2023-04-28T01:20:49;99850.47;;;11.74;100.00
20145;BME280;10233;50.814;6.590;2023-04-28T01:21:50;99839.75;;;11.80;100.00
20145;BME280;10233;50.814;6.590;2023-04-28T01:22:53;99847.56;;;11.75;100.00
20145;BME280;10233;50.814;6.590;2023-04-28T01:23:56;99854.97;;;11.73;100.00
20145;BME280;10233;50.814;6.590;2023-04-28T01:24:57;99850.03;;;11.77;100.00
20145;BME280;10233;50.814;6.590;2023-04-28T01:25:59;99848.97;;;11.78;100.00
20145;BME280;10233;50.814;6.590;2023-04-28T01:27:01;99840.25;;;11.71;100.00
20145;BME280;10233;50.814;6.590;2023-04-28T01:28:02;99844.06;;;11.81;100.00
20145;BME280;10233;50.814;6.590;2023-04-28T01:29:03;99836.78;;;11.70;100.00
20145;BME280;10233;50.814;6.590;2023-04-28T01:30:04;99836.91;;;11.75;100.00
20145;BME280;10233;50.814;6.590;2023-04-28T01:31:06;99840.19;;;11.77;100.00
20145;BME280;10233;50.814;6.590;2023-04-28T01:32:08;99831.16;;;11.78;100.00
20145;BME280;10233;50.814;6.590;2023-04-28T01:33:08;99838.56;;;11.76;100.00
20145;BME280;10233;50.814;6.590;2023-04-28T01:34:09;99833.41;;;11.81;100.00
20145;BME280;10233;50.814;6.590;2023-04-28T01:35:10;99835.91;;;11.76;100.00
20145;BME280;10233;50.814;6.590;2023-04-28T01:36:11;99829.69;;;11.82;100.00
20145;BME280;10233;50.814;6.590;2023-04-28T01:37:11;99831.69;;;11.69;100.00
20145;BME280;10233;50.814;6.590;2023-04-28T01:38:12;99821.19;;;11.74;100.00
20145;BME280;10233;50.814;6.590;2023-04-28T01:39:13;99828.09;;;11.81;100.00
20145;BME280;10233;50.814;6.590;2023-04-28T01:40:15;99825.09;;;11.71;100.00
20145;BME280;10233;50.814;6.590;2023-04-28T01:41:16;99826.72;;;11.72;100.00
20145;BME280;10233;50.814;6.590;2023-04-28T01:42:16;99819.53;;;11.73;100.00
20145;BME280;10233;50.814;6.590;2023-04-28T01:43:17;99822.44;;;11.71;100.00
20145;BME280;10233;50.814;6.590;2023-04-28T01:44:18;99821.50;;;11.59;100.00
20145;BME280;10233;50.814;6.590;2023-04-28T01:45:19;99817.81;;;11.60;100.00
20145;BME280;10233;50.814;6.590;2023-04-28T01:46:19;99818.44;;;11.62;100.00
20145;BME280;10233;50.814;6.590;2023-04-28T01:47:20;99822.56;;;11.52;100.00
20145;BME280;10233;50.814;6.590;2023-04-28T01:48:20;99829.31;;;11.54;100.00
20145;BME280;10233;50.814;6.590;2023-04-28T01:49:21;99831.03;;;11.49;100.00
20145;BME280;10233;50.814;6.590;2023-04-28T01:50:23;99832.38;;;11.33;100.00
20145;BME280;10233;50.814;6.590;2023-04-28T01:51:24;99819.75;;;11.47;100.00
20145;BME280;10233;50.814;6.590;2023-04-28T01:52:25;99832.59;;;11.56;100.00
20145;BME280;10233;50.814;6.590;2023-04-28T01:55:05;99836.78;;;11.70;100.00
20145;BME280;10233;50.814;6.590;2023-04-28T01:56:43;99839.72;;;11.62;100.00
20145;BME280;10233;50.814;6.590;2023-04-28T01:57:46;99848.25;;;11.71;100.00
20145;BME280;10233;50.814;6.590;2023-04-28T01:58:46;99843.19;;;11.87;100.00
20145;BME280;10233;50.814;6.590;2023-04-28T01:59:47;99844.53;;;11.96;100.00
20145;BME280;10233;50.814;6.590;2023-04-28T02:00:48;99840.44;;;11.94;100.00
20145;BME280;10233;50.814;6.590;2023-04-28T02:01:50;99842.97;;;11.89;100.00
20145;BME280;10233;50.814;6.590;2023-04-28T02:02:50;99841.19;;;11.83;100.00
20145;BME280;10233;50.814;6.590;2023-04-28T02:03:51;99846.72;;;11.81;100.00
20145;BME280;10233;50.814;6.590;2023-04-28T02:04:51;99847.19;;;11.96;100.00
20145;BME280;10233;50.814;6.590;2023-04-28T02:05:53;99837.25;;;12.03;100.00
20145;BME280;10233;50.814;6.590;2023-04-28T02:06:53;99836.97;;;12.11;100.00
20145;BME280;10233;50.814;6.590;2023-04-28T02:07:54;99833.06;;;12.14;100.00
20145;BME280;10233;50.814;6.590;2023-04-28T02:08:55;99839.56;;;12.18;100.00
20145;BME280;10233;50.814;6.590;2023-04-28T02:09:56;99840.16;;;12.20;100.00
20145;BME280;10233;50.814;6.590;2023-04-28T02:10:56;99839.09;;;12.21;100.00
20145;BME280;10233;50.814;6.590;2023-04-28T02:11:57;99842.91;;;12.31;100.00
20145;BME280;10233;50.814;6.590;2023-04-28T02:12:59;99837.41;;;12.26;100.00
20145;BME280;10233;50.814;6.590;2023-04-28T02:14:00;99841.50;;;12.29;100.00
20145;BME280;10233;50.814;6.590;2023-04-28T02:15:00;99836.72;;;12.31;100.00
20145;BME280;10233;50.814;6.590;2023-04-28T02:16:01;99829.84;;;12.23;100.00
20145;BME280;10233;50.814;6.590;2023-04-28T02:17:02;99834.41;;;12.23;100.00
20145;BME280;10233;50.814;6.590;2023-04-28T02:18:06;99838.91;;;12.22;100.00
20145;BME280;10233;50.814;6.590;2023-04-28T02:19:07;99834.53;;;12.28;100.00
20145;BME280;10233;50.814;6.590;2023-04-28T02:20:08;99832.66;;;12.28;100.00
20145;BME280;10233;50.814;6.590;2023-04-28T02:21:09;99837.56;;;12.31;100.00
20145;BME280;10233;50.814;6.590;2023-04-28T02:22:11;99840.38;;;12.36;100.00
20145;BME280;10233;50.814;6.590;2023-04-28T02:23:14;99840.50;;;12.41;100.00
20145;BME280;10233;50.814;6.590;2023-04-28T02:24:15;99839.47;;;12.42;100.00
20145;BME280;10233;50.814;6.590;2023-04-28T02:25:15;99836.50;;;12.50;100.00
20145;BME280;10233;50.814;6.590;2023-04-28T02:26:16;99833.53;;;12.58;100.00
20145;BME280;10233;50.814;6.590;2023-04-28T02:27:17;99833.69;;;12.63;100.00
20145;BME280;10233;50.814;6.590;2023-04-28T02:28:17;99835.16;;;12.59;100.00
20145;BME280;10233;50.814;6.590;2023-04-28T02:29:18;99832.38;;;12.54;100.00
20145;BME280;10233;50.814;6.590;2023-04-28T02:30:19;99821.09;;;12.52;100.00
20145;BME280;10233;50.814;6.590;2023-04-28T02:31:19;99821.50;;;12.38;100.00
20145;BME280;10233;50.814;6.590;2023-04-28T02:32:20;99825.72;;;12.27;100.00
20145;BME280;10233;50.814;6.590;2023-04-28T02:33:24;99823.34;;;12.19;100.00
20145;BME280;10233;50.814;6.590;2023-04-28T02:34:25;99822.09;;;12.22;100.00
20145;BME280;10233;50.814;6.590;2023-04-28T02:35:26;99822.53;;;12.19;100.00
20145;BME280;10233;50.814;6.590;2023-04-28T02:36:27;99821.94;;;12.17;100.00
20145;BME280;10233;50.814;6.590;2023-04-28T02:37:28;99826.00;;;12.19;100.00
20145;BME280;10233;50.814;6.590;2023-04-28T02:38:28;99820.91;;;12.18;100.00
20145;BME280;10233;50.814;6.590;2023-04-28T02:39:29;99819.13;;;12.12;100.00
20145;BME280;10233;50.814;6.590;2023-04-28T02:40:32;99823.72;;;12.05;100.00
20145;BME280;10233;50.814;6.590;2023-04-28T02:41:32;99812.97;;;11.93;100.00
20145;BME280;10233;50.814;6.590;2023-04-28T02:42:34;99826.59;;;11.85;100.00
20145;BME280;10233;50.814;6.590;2023-04-28T02:43:35;99818.16;;;11.88;100.00
20145;BME280;10233;50.814;6.590;2023-04-28T02:44:36;99816.75;;;11.86;100.00
20145;BME280;10233;50.814;6.590;2023-04-28T02:45:37;99809.28;;;11.76;100.00
20145;BME280;10233;50.814;6.590;2023-04-28T02:46:37;99812.94;;;11.75;100.00
20145;BME280;10233;50.814;6.590;2023-04-28T02:47:38;99811.34;;;11.74;100.00
20145;BME280;10233;50.814;6.590;2023-04-28T02:48:39;99810.75;;;11.72;100.00
20145;BME280;10233;50.814;6.590;2023-04-28T02:49:40;99801.13;;;11.71;100.00
20145;BME280;10233;50.814;6.590;2023-04-28T02:50:41;99802.56;;;11.74;100.00
20145;BME280;10233;50.814;6.590;2023-04-28T02:51:41;99804.97;;;11.75;100.00
20145;BME280;10233;50.814;6.590;2023-04-28T02:52:43;99807.03;;;11.73;100.00
20145;BME280;10233;50.814;6.590;2023-04-28T02:53:44;99800.09;;;11.72;100.00
20145;BME280;10233;50.814;6.590;2023-04-28T02:54:45;99807.09;;;11.67;100.00
20145;BME280;10233;50.814;6.590;2023-04-28T02:55:49;99806.31;;;11.66;100.00
20145;BME280;10233;50.814;6.590;2023-04-28T02:56:49;99802.25;;;11.64;100.00
20145;BME280;10233;50.814;6.590;2023-04-28T02:57:50;99798.75;;;11.63;100.00
20145;BME280;10233;50.814;6.590;2023-04-28T02:58:51;99800.59;;;11.63;100.00
20145;BME280;10233;50.814;6.590;2023-04-28T02:59:52;99798.19;;;11.55;100.00
20145;BME280;10233;50.814;6.590;2023-04-28T03:00:52;99799.78;;;11.62;100.00
20145;BME280;10233;50.814;6.590;2023-04-28T03:01:53;99796.50;;;11.60;100.00
20145;BME280;10233;50.814;6.590;2023-04-28T03:02:53;99787.09;;;11.58;100.00
20145;BME280;10233;50.814;6.590;2023-04-28T03:03:54;99787.59;;;11.48;100.00
20145;BME280;10233;50.814;6.590;2023-04-28T03:04:55;99783.47;;;11.52;100.00
20145;BME280;10233;50.814;6.590;2023-04-28T03:05:55;99783.84;;;11.56;100.00
20145;BME280;10233;50.814;6.590;2023-04-28T03:06:56;99778.34;;;11.51;100.00
20145;BME280;10233;50.814;6.590;2023-04-28T03:07:57;99773.47;;;11.48;100.00
20145;BME280;10233;50.814;6.590;2023-04-28T03:08:58;99780.03;;;11.45;100.00
20145;BME280;10233;50.814;6.590;2023-04-28T03:09:59;99769.19;;;11.47;100.00
20145;BME280;10233;50.814;6.590;2023-04-28T03:11:00;99772.31;;;11.44;100.00
20145;BME280;10233;50.814;6.590;2023-04-28T03:12:01;99771.09;;;11.40;100.00
20145;BME280;10233;50.814;6.590;2023-04-28T03:13:04;99774.44;;;11.29;100.00
20145;BME280;10233;50.814;6.590;2023-04-28T03:14:05;99777.28;;;11.34;100.00
20145;BME280;10233;50.814;6.590;2023-04-28T03:15:06;99773.19;;;11.13;100.00
20145;BME280;10233;50.814;6.590;2023-04-28T03:16:10;99769.81;;;11.24;100.00
20145;BME280;10233;50.814;6.590;2023-04-28T03:17:10;99772.50;;;11.18;100.00
20145;BME280;10233;50.814;6.590;2023-04-28T03:18:13;99771.75;;;11.11;100.00
20145;BME280;10233;50.814;6.590;2023-04-28T03:19:14;99768.72;;;11.07;100.00
20145;BME280;10233;50.814;6.590;2023-04-28T03:20:15;99771.97;;;11.09;100.00
20145;BME280;10233;50.814;6.590;2023-04-28T03:21:15;99768.22;;;11.17;100.00
20145;BME280;10233;50.814;6.590;2023-04-28T03:22:16;99760.91;;;11.12;100.00
20145;BME280;10233;50.814;6.590;2023-04-28T03:23:16;99766.56;;;11.22;100.00
20145;BME280;10233;50.814;6.590;2023-04-28T03:24:17;99766.56;;;11.22;100.00
20145;BME280;10233;50.814;6.590;2023-04-28T03:25:18;99762.34;;;11.33;100.00
20145;BME280;10233;50.814;6.590;2023-04-28T03:26:24;99755.78;;;11.35;100.00
20145;BME280;10233;50.814;6.590;2023-04-28T03:27:26;99757.41;;;11.36;100.00
20145;BME280;10233;50.814;6.590;2023-04-28T03:28:29;99752.75;;;11.32;100.00
20145;BME280;10233;50.814;6.590;2023-04-28T03:29:29;99750.13;;;11.25;100.00
20145;BME280;10233;50.814;6.590;2023-04-28T03:30:30;99752.94;;;11.30;100.00
20145;BME280;10233;50.814;6.590;2023-04-28T03:31:31;99746.00;;;11.29;100.00
20145;BME280;10233;50.814;6.590;2023-04-28T03:32:35;99749.25;;;11.31;100.00
20145;BME280;10233;50.814;6.590;2023-04-28T03:33:36;99739.38;;;11.38;100.00
20145;BME280;10233;50.814;6.590;2023-04-28T03:34:36;99748.25;;;11.32;100.00
20145;BME280;10233;50.814;6.590;2023-04-28T03:35:37;99747.78;;;11.35;100.00
20145;BME280;10233;50.814;6.590;2023-04-28T03:36:38;99748.63;;;11.36;100.00
20145;BME280;10233;50.814;6.590;2023-04-28T03:37:46;99744.91;;;11.37;100.00
20145;BME280;10233;50.814;6.590;2023-04-28T03:38:47;99743.09;;;11.37;100.00
20145;BME280;10233;50.814;6.590;2023-04-28T03:39:48;99743.44;;;11.41;100.00
20145;BME280;10233;50.814;6.590;2023-04-28T03:40:49;99744.91;;;11.37;100.00
20145;BME280;10233;50.814;6.590;2023-04-28T03:41:55;99745.44;;;11.27;100.00
20145;BME280;10233;50.814;6.590;2023-04-28T03:43:11;99742.69;;;11.34;100.00
20145;BME280;10233;50.814;6.590;2023-04-28T03:44:47;99735.88;;;11.38;100.00
20145;BME280;10233;50.814;6.590;2023-04-28T03:45:48;99732.44;;;11.37;100.00
20145;BME280;10233;50.814;6.590;2023-04-28T03:46:49;99734.63;;;11.22;100.00
20145;BME280;10233;50.814;6.590;2023-04-28T03:47:50;99741.13;;;11.26;100.00
20145;BME280;10233;50.814;6.590;2023-04-28T03:48:50;99732.84;;;11.34;100.00
20145;BME280;10233;50.814;6.590;2023-04-28T03:49:53;99739.50;;;11.25;100.00
20145;BME280;10233;50.814;6.590;2023-04-28T03:50:54;99740.69;;;11.29;100.00
20145;BME280;10233;50.814;6.590;2023-04-28T03:51:55;99738.41;;;11.33;100.00
20145;BME280;10233;50.814;6.590;2023-04-28T03:52:57;99736.50;;;11.40;100.00
20145;BME280;10233;50.814;6.590;2023-04-28T03:53:58;99733.59;;;11.41;100.00
20145;BME280;10233;50.814;6.590;2023-04-28T03:54:58;99728.28;;;11.41;100.00
20145;BME280;10233;50.814;6.590;2023-04-28T03:55:59;99728.66;;;11.45;100.00
20145;BME280;10233;50.814;6.590;2023-04-28T03:57:00;99727.13;;;11.37;100.00
20145;BME280;10233;50.814;6.590;2023-04-28T03:58:01;99729.16;;;11.35;100.00
20145;BME280;10233;50.814;6.590;2023-04-28T03:59:02;99717.63;;;11.41;100.00
20145;BME280;10233;50.814;6.590;2023-04-28T04:00:03;99708.56;;;11.49;100.00
20145;BME280;10233;50.814;6.590;2023-04-28T04:01:05;99709.06;;;11.39;100.00
20145;BME280;10233;50.814;6.590;2023-04-28T04:02:05;99706.41;;;11.39;100.00
20145;BME280;10233;50.814;6.590;2023-04-28T04:03:06;99695.09;;;11.44;100.00
20145;BME280;10233;50.814;6.590;2023-04-28T04:04:07;99694.34;;;11.37;100.00
20145;BME280;10233;50.814;6.590;2023-04-28T04:05:08;99686.16;;;11.38;100.00
20145;BME280;10233;50.814;6.590;2023-04-28T04:06:08;99684.28;;;11.39;100.00
20145;BME280;10233;50.814;6.590;2023-04-28T04:07:10;99679.50;;;11.47;100.00
20145;BME280;10233;50.814;6.590;2023-04-28T04:08:10;99678.59;;;11.35;100.00
20145;BME280;10233;50.814;6.590;2023-04-28T04:09:11;99687.31;;;11.24;100.00
20145;BME280;10233;50.814;6.590;2023-04-28T04:10:12;99682.66;;;11.20;100.00
20145;BME280;10233;50.814;6.590;2023-04-28T04:11:16;99686.34;;;11.19;100.00
20145;BME280;10233;50.814;6.590;2023-04-28T04:12:16;99693.00;;;11.10;100.00
20145;BME280;10233;50.814;6.590;2023-04-28T04:13:18;99695.66;;;11.28;100.00
20145;BME280;10233;50.814;6.590;2023-04-28T04:14:18;99697.97;;;11.24;100.00
20145;BME280;10233;50.814;6.590;2023-04-28T04:15:19;99702.84;;;11.27;100.00
20145;BME280;10233;50.814;6.590;2023-04-28T04:16:22;99707.03;;;11.17;100.00
20145;BME280;10233;50.814;6.590;2023-04-28T04:17:22;99703.53;;;11.16;100.00
20145;BME280;10233;50.814;6.590;2023-04-28T04:18:23;99706.06;;;11.11;100.00
20145;BME280;10233;50.814;6.590;2023-04-28T04:19:43;99706.97;;;11.23;100.00
20145;BME280;10233;50.814;6.590;2023-04-28T04:20:45;99711.31;;;11.18;100.00
20145;BME280;10233;50.814;6.590;2023-04-28T04:21:45;99712.47;;;11.28;100.00
20145;BME280;10233;50.814;6.590;2023-04-28T04:22:46;99711.56;;;11.34;100.00
20145;BME280;10233;50.814;6.590;2023-04-28T04:23:47;99714.22;;;11.34;100.00
20145;BME280;10233;50.814;6.590;2023-04-28T04:24:48;99717.03;;;11.39;100.00
20145;BME280;10233;50.814;6.590;2023-04-28T04:25:48;99712.75;;;11.38;100.00
20145;BME280;10233;50.814;6.590;2023-04-28T04:26:49;99707.38;;;11.45;100.00
20145;BME280;10233;50.814;6.590;2023-04-28T04:28:04;99706.69;;;11.49;100.00
20145;BME280;10233;50.814;6.590;2023-04-28T04:29:04;99708.25;;;11.39;100.00
20145;BME280;10233;50.814;6.590;2023-04-28T04:30:07;99710.09;;;11.38;100.00
20145;BME280;10233;50.814;6.590;2023-04-28T04:31:07;99718.66;;;11.40;100.00
20145;BME280;10233;50.814;6.590;2023-04-28T04:32:09;99722.22;;;11.34;100.00
20145;BME280;10233;50.814;6.590;2023-04-28T04:33:11;99725.28;;;11.56;100.00
20145;BME280;10233;50.814;6.590;2023-04-28T04:34:12;99725.47;;;11.61;100.00
20145;BME280;10233;50.814;6.590;2023-04-28T04:35:12;99722.38;;;11.64;100.00
20145;BME280;10233;50.814;6.590;2023-04-28T04:36:13;99725.69;;;11.53;100.00
20145;BME280;10233;50.814;6.590;2023-04-28T04:37:13;99726.31;;;11.55;100.00
20145;BME280;10233;50.814;6.590;2023-04-28T04:38:20;99728.94;;;11.61;100.00
20145;BME280;10233;50.814;6.590;2023-04-28T04:39:22;99729.25;;;11.47;100.00
20145;BME280;10233;50.814;6.590;2023-04-28T04:40:22;99723.66;;;11.55;100.00
20145;BME280;10233;50.814;6.590;2023-04-28T04:41:27;99731.88;;;11.29;100.00
20145;BME280;10233;50.814;6.590;2023-04-28T04:42:41;99724.38;;;11.44;100.00
20145;BME280;10233;50.814;6.590;2023-04-28T04:43:49;99728.13;;;11.36;100.00
20145;BME280;10233;50.814;6.590;2023-04-28T04:44:50;99721.06;;;11.24;100.00
20145;BME280;10233;50.814;6.590;2023-04-28T04:46:00;99715.44;;;11.14;100.00
20145;BME280;10233;50.814;6.590;2023-04-28T04:47:03;99726.81;;;11.27;100.00
20145;BME280;10233;50.814;6.590;2023-04-28T04:48:06;99722.78;;;11.18;100.00
20145;BME280;10233;50.814;6.590;2023-04-28T04:49:07;99719.91;;;11.20;100.00
20145;BME280;10233;50.814;6.590;2023-04-28T04:50:08;99727.66;;;11.21;100.00
20145;BME280;10233;50.814;6.590;2023-04-28T04:51:08;99727.00;;;11.01;100.00
20145;BME280;10233;50.814;6.590;2023-04-28T04:52:09;99724.03;;;10.91;100.00
20145;BME280;10233;50.814;6.590;2023-04-28T04:53:10;99723.81;;;10.93;100.00
20145;BME280;10233;50.814;6.590;2023-04-28T04:54:12;99724.97;;;11.03;100.00
20145;BME280;10233;50.814;6.590;2023-04-28T04:55:15;99729.41;;;11.09;100.00
20145;BME280;10233;50.814;6.590;2023-04-28T04:56:16;99717.88;;;11.15;100.00
20145;BME280;10233;50.814;6.590;2023-04-28T04:57:17;99727.66;;;11.21;100.00
20145;BME280;10233;50.814;6.590;2023-04-28T04:58:46;99721.22;;;11.11;100.00
20145;BME280;10233;50.814;6.590;2023-04-28T05:00:06;99719.75;;;11.15;100.00
20145;BME280;10233;50.814;6.590;2023-04-28T05:01:07;99727.59;;;11.28;100.00
20145;BME280;10233;50.814;6.590;2023-04-28T05:02:08;99715.91;;;11.29;100.00
20145;BME280;10233;50.814;6.590;2023-04-28T05:03:09;99716.69;;;11.36;100.00
20145;BME280;10233;50.814;6.590;2023-04-28T05:04:10;99715.75;;;11.24;100.00
20145;BME280;10233;50.814;6.590;2023-04-28T05:05:10;99719.75;;;11.33;100.00
20145;BME280;10233;50.814;6.590;2023-04-28T05:06:11;99724.88;;;11.34;100.00
20145;BME280;10233;50.814;6.590;2023-04-28T05:07:21;99723.19;;;11.40;100.00
20145;BME280;10233;50.814;6.590;2023-04-28T05:08:22;99731.19;;;11.40;100.00
20145;BME280;10233;50.814;6.590;2023-04-28T05:09:22;99718.81;;;11.45;100.00
20145;BME280;10233;50.814;6.590;2023-04-28T05:10:24;99717.47;;;11.36;100.00
20145;BME280;10233;50.814;6.590;2023-04-28T05:11:25;99723.72;;;11.48;100.00
20145;BME280;10233;50.814;6.590;2023-04-28T05:12:26;99722.94;;;11.41;100.00
20145;BME280;10233;50.814;6.590;2023-04-28T05:13:27;99719.25;;;11.24;100.00
20145;BME280;10233;50.814;6.590;2023-04-28T05:14:33;99717.78;;;11.28;100.00
20145;BME280;10233;50.814;6.590;2023-04-28T05:15:34;99725.16;;;11.26;100.00
20145;BME280;10233;50.814;6.590;2023-04-28T05:17:10;99722.16;;;11.16;100.00
20145;BME280;10233;50.814;6.590;2023-04-28T05:18:13;99717.00;;;11.21;100.00
20145;BME280;10233;50.814;6.590;2023-04-28T05:19:14;99712.66;;;11.27;100.00
20145;BME280;10233;50.814;6.590;2023-04-28T05:20:15;99711.72;;;11.39;100.00
20145;BME280;10233;50.814;6.590;2023-04-28T05:21:16;99709.94;;;11.33;100.00
20145;BME280;10233;50.814;6.590;2023-04-28T05:22:16;99715.53;;;11.25;100.00
20145;BME280;10233;50.814;6.590;2023-04-28T05:23:18;99707.03;;;11.17;100.00
20145;BME280;10233;50.814;6.590;2023-04-28T05:24:20;99712.63;;;11.09;100.00
20145;BME280;10233;50.814;6.590;2023-04-28T05:25:23;99716.28;;;11.14;100.00
20145;BME280;10233;50.814;6.590;2023-04-28T05:26:23;99708.72;;;11.11;100.00